DAAGDAAS

Guest
Details From DAAG - Alger Houari Boumediene
To DAAS - Ain Arnat
Flight Number -
Tags generated
Created
Modified
Stats Distance 107 nm / 198 km
Max Altitude 100 ft / 30 m
Waypoints 3
Social Downloads 2
Likes 0
Share VATSIM

Download

Looking for another format? Having issues loading an existing format? Contact us
Advertisement - Login to hide

Notes

Basic altitude profile: - Ascent Rate: 2500ft/min - Ascent Speed: 250kts - Cruise Altitude: 35000ft - Cruise Speed: 420kts - Descent Rate: 1500ft/min - Descent Speed: 250kts Options: - Use NATs: yes - Use PACOTS: yes - Use low airways: yes - Use high airways: yes

Route

DAAG ALR DAAS

ID Type Via Altitude Latitude Longitude Leg Dist Tot Dist Heading (true) Name
O DAAG APT - 0 ft / 0 m 36.69752˚ 3.21308˚ - 0 nm - Alger Houari Boumediene
ALR VOR - 100 ft / 30 m 36.69111˚ 3.21556˚ 0 nm 0 nm 163° / 163° ALGER VOR-DME
O DAAS APT - 0 ft / 0 m 36.17813˚ 5.32449˚ 106 nm 106 nm 106° / 107° Ain Arnat

Altitude Profile

Advertisement - Login to hide

DAAG

Details ICAO DAAG (ALG)
Name Alger Houari Boumediene
Region Algeria
Timezone Africa/Algiers (UTC+1.0)
Stats Elevation 82 ft / 25 m (AMSL)
Location 36.697521° 3.213079°
Runways 2
Magnetic Variation 1.057° E

METAR

DAAG 121200Z 22005KT 190V260 9999 -RA FEW020TCU SCT046 BKN110 13/10 Q1015

Decode

TAF

TAF DAAG 121100Z 1212/1312 VRB02KT 9999 FEW020 SCT040 BKN100 TEMPO 1212/1220 22010KT 5000 -RA FEW023CB BECMG 1309/1312 30010KT

Decode

Departure Runways

ID Width Length Bearing (true) Bearing (mag) Surface Threshold Offset Overrun Length
05 197 ft / 60 m 11,459 ft / 3,493 m 52.87° 51.81° Asphalt 0 ft / 0 m 0 ft / 0 m
09 148 ft / 45 m 11,442 ft / 3,487 m 91.75° 90.69° Asphalt 0 ft / 0 m 1,017 ft / 310 m
23 197 ft / 60 m 11,459 ft / 3,493 m 232.89° 231.83° Asphalt 0 ft / 0 m 0 ft / 0 m
27 148 ft / 45 m 11,442 ft / 3,487 m 271.78° 270.72° Asphalt 0 ft / 0 m 0 ft / 0 m

DAAS

Details ICAO DAAS (QSF)
Name Ain Arnat
Region Algeria
Timezone Africa/Algiers (UTC+1.0)
Stats Elevation 3,360 ft / 1,024 m (AMSL)
Location 36.178129° 5.324493°
Runways 1
Magnetic Variation 1.476° E

METAR

DAAS 121200Z 18012KT 9999 FEW030 SCT100 12/M01 Q1015

Decode

TAF

TAF DAAS 121100Z 1212/1312 23012KT 9999 FEW030 BKN090 PROB40 TEMPO 1220/1306 5000 -RA FEW023TCU

Decode

Destination Runways

ID Width Length Bearing (true) Bearing (mag) Surface Threshold Offset Overrun Length
09 125 ft / 38 m 6,320 ft / 1,926 m 88.49° 87.01° Asphalt 300 ft / 91 m 0 ft / 0 m
27 125 ft / 38 m 6,320 ft / 1,926 m 268.51° 267.03° Asphalt 329 ft / 100 m 0 ft / 0 m

Popular Alternatives